sensor_id;sensor_type;location;lat;lon;timestamp;P1;durP1;ratioP1;P2;durP2;ratioP2
73239;SDS011;61452;40.054;4.110;2023-06-19T00:04:38;4.13;;;3.72;;
73239;SDS011;61452;40.054;4.110;2023-06-19T00:09:41;5.28;;;4.00;;
73239;SDS011;61452;40.054;4.110;2023-06-19T00:14:43;4.53;;;3.42;;
73239;SDS011;61452;40.054;4.110;2023-06-19T00:19:45;3.88;;;3.25;;
73239;SDS011;61452;40.054;4.110;2023-06-19T00:29:50;4.47;;;3.35;;
73239;SDS011;61452;40.054;4.110;2023-06-19T00:34:53;4.97;;;3.55;;
73239;SDS011;61452;40.054;4.110;2023-06-19T00:39:55;4.38;;;3.80;;
73239;SDS011;61452;40.054;4.110;2023-06-19T00:44:57;4.30;;;3.45;;
73239;SDS011;61452;40.054;4.110;2023-06-19T00:49:59;4.53;;;3.55;;
73239;SDS011;61452;40.054;4.110;2023-06-19T00:55:01;4.03;;;3.63;;
73239;SDS011;61452;40.054;4.110;2023-06-19T01:00:05;5.43;;;3.72;;
73239;SDS011;61452;40.054;4.110;2023-06-19T01:05:08;4.35;;;3.28;;
73239;SDS011;61452;40.054;4.110;2023-06-19T01:10:15;4.03;;;3.55;;
73239;SDS011;61452;40.054;4.110;2023-06-19T01:15:22;4.38;;;3.58;;
73239;SDS011;61452;40.054;4.110;2023-06-19T01:20:25;5.93;;;3.40;;
73239;SDS011;61452;40.054;4.110;2023-06-19T01:25:27;4.45;;;3.38;;
73239;SDS011;61452;40.054;4.110;2023-06-19T01:30:29;5.68;;;3.40;;
73239;SDS011;61452;40.054;4.110;2023-06-19T01:35:33;5.20;;;3.67;;
73239;SDS011;61452;40.054;4.110;2023-06-19T01:40:37;3.75;;;3.35;;
73239;SDS011;61452;40.054;4.110;2023-06-19T01:45:41;4.95;;;3.67;;
73239;SDS011;61452;40.054;4.110;2023-06-19T01:50:47;4.35;;;3.58;;
73239;SDS011;61452;40.054;4.110;2023-06-19T01:55:50;4.03;;;3.60;;
73239;SDS011;61452;40.054;4.110;2023-06-19T02:00:52;3.95;;;3.42;;
73239;SDS011;61452;40.054;4.110;2023-06-19T02:05:54;4.88;;;3.42;;
73239;SDS011;61452;40.054;4.110;2023-06-19T02:10:56;4.20;;;3.22;;
73239;SDS011;61452;40.054;4.110;2023-06-19T02:15:59;4.85;;;3.35;;
73239;SDS011;61452;40.054;4.110;2023-06-19T02:21:02;5.28;;;3.63;;
73239;SDS011;61452;40.054;4.110;2023-06-19T02:26:04;4.43;;;3.45;;
73239;SDS011;61452;40.054;4.110;2023-06-19T02:31:06;4.82;;;3.53;;
73239;SDS011;61452;40.054;4.110;2023-06-19T02:36:08;4.93;;;3.33;;
73239;SDS011;61452;40.054;4.110;2023-06-19T02:41:14;4.22;;;3.42;;
73239;SDS011;61452;40.054;4.110;2023-06-19T02:46:16;4.68;;;3.60;;
73239;SDS011;61452;40.054;4.110;2023-06-19T02:51:19;4.18;;;3.38;;
73239;SDS011;61452;40.054;4.110;2023-06-19T02:56:22;4.40;;;3.70;;
73239;SDS011;61452;40.054;4.110;2023-06-19T03:01:24;6.00;;;3.25;;
73239;SDS011;61452;40.054;4.110;2023-06-19T03:06:27;3.80;;;3.40;;
73239;SDS011;61452;40.054;4.110;2023-06-19T03:11:30;4.95;;;3.45;;
73239;SDS011;61452;40.054;4.110;2023-06-19T03:16:32;5.25;;;3.33;;
73239;SDS011;61452;40.054;4.110;2023-06-19T03:21:36;4.95;;;3.17;;
73239;SDS011;61452;40.054;4.110;2023-06-19T03:26:38;4.10;;;3.35;;
73239;SDS011;61452;40.054;4.110;2023-06-19T03:31:41;4.93;;;3.25;;
73239;SDS011;61452;40.054;4.110;2023-06-19T03:36:43;3.60;;;3.20;;
73239;SDS011;61452;40.054;4.110;2023-06-19T03:41:45;4.82;;;3.35;;
73239;SDS011;61452;40.054;4.110;2023-06-19T03:46:48;3.65;;;3.20;;
73239;SDS011;61452;40.054;4.110;2023-06-19T03:51:52;3.55;;;3.10;;
73239;SDS011;61452;40.054;4.110;2023-06-19T03:56:56;4.25;;;3.45;;
73239;SDS011;61452;40.054;4.110;2023-06-19T04:01:58;3.95;;;3.10;;
73239;SDS011;61452;40.054;4.110;2023-06-19T04:07:00;3.67;;;3.13;;
73239;SDS011;61452;40.054;4.110;2023-06-19T04:12:02;4.07;;;3.38;;
73239;SDS011;61452;40.054;4.110;2023-06-19T04:17:04;5.45;;;3.38;;
73239;SDS011;61452;40.054;4.110;2023-06-19T04:22:07;4.20;;;3.10;;
73239;SDS011;61452;40.054;4.110;2023-06-19T04:27:09;5.35;;;3.67;;
73239;SDS011;61452;40.054;4.110;2023-06-19T04:32:11;5.60;;;3.28;;
73239;SDS011;61452;40.054;4.110;2023-06-19T04:37:14;4.03;;;3.42;;
73239;SDS011;61452;40.054;4.110;2023-06-19T04:42:20;5.13;;;3.22;;
73239;SDS011;61452;40.054;4.110;2023-06-19T04:47:23;5.57;;;3.25;;
73239;SDS011;61452;40.054;4.110;2023-06-19T04:52:37;3.90;;;3.03;;
73239;SDS011;61452;40.054;4.110;2023-06-19T04:57:39;4.60;;;3.20;;
73239;SDS011;61452;40.054;4.110;2023-06-19T05:02:41;4.38;;;3.58;;
73239;SDS011;61452;40.054;4.110;2023-06-19T05:07:45;4.40;;;3.83;;
73239;SDS011;61452;40.054;4.110;2023-06-19T05:12:48;4.82;;;3.20;;
73239;SDS011;61452;40.054;4.110;2023-06-19T05:17:50;4.05;;;3.20;;
73239;SDS011;61452;40.054;4.110;2023-06-19T05:22:52;4.68;;;3.40;;
73239;SDS011;61452;40.054;4.110;2023-06-19T05:27:55;5.85;;;3.60;;
73239;SDS011;61452;40.054;4.110;2023-06-19T05:32:57;4.85;;;3.40;;
73239;SDS011;61452;40.054;4.110;2023-06-19T05:38:00;4.65;;;3.53;;
73239;SDS011;61452;40.054;4.110;2023-06-19T05:43:03;4.63;;;3.47;;
73239;SDS011;61452;40.054;4.110;2023-06-19T05:48:05;4.32;;;3.08;;
73239;SDS011;61452;40.054;4.110;2023-06-19T05:53:08;5.07;;;3.30;;
73239;SDS011;61452;40.054;4.110;2023-06-19T05:58:10;5.13;;;3.30;;
73239;SDS011;61452;40.054;4.110;2023-06-19T06:03:12;6.80;;;3.42;;
73239;SDS011;61452;40.054;4.110;2023-06-19T06:08:15;5.45;;;3.67;;
73239;SDS011;61452;40.054;4.110;2023-06-19T06:13:17;4.53;;;3.08;;
73239;SDS011;61452;40.054;4.110;2023-06-19T06:18:19;4.85;;;3.60;;
73239;SDS011;61452;40.054;4.110;2023-06-19T06:23:21;4.00;;;3.03;;
73239;SDS011;61452;40.054;4.110;2023-06-19T06:28:23;5.03;;;3.15;;
73239;SDS011;61452;40.054;4.110;2023-06-19T06:33:28;6.65;;;3.33;;
73239;SDS011;61452;40.054;4.110;2023-06-19T06:38:30;4.57;;;3.22;;
73239;SDS011;61452;40.054;4.110;2023-06-19T06:43:32;4.53;;;3.40;;
73239;SDS011;61452;40.054;4.110;2023-06-19T06:48:34;5.60;;;3.35;;
73239;SDS011;61452;40.054;4.110;2023-06-19T06:53:36;4.43;;;3.10;;
73239;SDS011;61452;40.054;4.110;2023-06-19T06:58:38;5.90;;;3.25;;
73239;SDS011;61452;40.054;4.110;2023-06-19T07:08:44;5.80;;;3.85;;
73239;SDS011;61452;40.054;4.110;2023-06-19T07:13:49;5.47;;;3.50;;
73239;SDS011;61452;40.054;4.110;2023-06-19T07:18:51;5.80;;;3.80;;
73239;SDS011;61452;40.054;4.110;2023-06-19T07:23:53;5.47;;;3.58;;
73239;SDS011;61452;40.054;4.110;2023-06-19T07:28:56;5.07;;;3.03;;
73239;SDS011;61452;40.054;4.110;2023-06-19T07:33:58;5.63;;;3.17;;
73239;SDS011;61452;40.054;4.110;2023-06-19T07:39:01;5.53;;;3.55;;
73239;SDS011;61452;40.054;4.110;2023-06-19T07:44:03;6.47;;;4.35;;
73239;SDS011;61452;40.054;4.110;2023-06-19T07:49:06;5.18;;;3.58;;
73239;SDS011;61452;40.054;4.110;2023-06-19T07:54:08;5.05;;;3.15;;
73239;SDS011;61452;40.054;4.110;2023-06-19T07:59:10;5.22;;;3.45;;
73239;SDS011;61452;40.054;4.110;2023-06-19T08:04:12;4.90;;;3.28;;
73239;SDS011;61452;40.054;4.110;2023-06-19T08:09:15;5.43;;;3.50;;
73239;SDS011;61452;40.054;4.110;2023-06-19T08:14:17;4.43;;;3.22;;
73239;SDS011;61452;40.054;4.110;2023-06-19T08:19:19;4.88;;;3.33;;
73239;SDS011;61452;40.054;4.110;2023-06-19T08:24:21;7.15;;;3.20;;
73239;SDS011;61452;40.054;4.110;2023-06-19T08:29:23;7.38;;;3.47;;
73239;SDS011;61452;40.054;4.110;2023-06-19T08:34:25;6.20;;;3.55;;
73239;SDS011;61452;40.054;4.110;2023-06-19T08:39:28;6.40;;;4.00;;
73239;SDS011;61452;40.054;4.110;2023-06-19T08:44:30;8.20;;;4.30;;
73239;SDS011;61452;40.054;4.110;2023-06-19T08:49:33;5.75;;;3.28;;
73239;SDS011;61452;40.054;4.110;2023-06-19T08:54:36;6.22;;;3.67;;
73239;SDS011;61452;40.054;4.110;2023-06-19T08:59:49;7.90;;;3.78;;
73239;SDS011;61452;40.054;4.110;2023-06-19T09:04:52;6.20;;;4.00;;
73239;SDS011;61452;40.054;4.110;2023-06-19T09:09:54;6.68;;;3.85;;
73239;SDS011;61452;40.054;4.110;2023-06-19T09:14:59;6.95;;;3.33;;
73239;SDS011;61452;40.054;4.110;2023-06-19T09:20:02;6.13;;;3.33;;
73239;SDS011;61452;40.054;4.110;2023-06-19T09:25:07;7.68;;;3.65;;
73239;SDS011;61452;40.054;4.110;2023-06-19T09:30:14;6.20;;;3.45;;
73239;SDS011;61452;40.054;4.110;2023-06-19T09:35:18;8.50;;;3.72;;
73239;SDS011;61452;40.054;4.110;2023-06-19T09:40:21;8.50;;;3.92;;
73239;SDS011;61452;40.054;4.110;2023-06-19T09:50:28;8.45;;;3.88;;
73239;SDS011;61452;40.054;4.110;2023-06-19T09:55:30;5.93;;;3.70;;
73239;SDS011;61452;40.054;4.110;2023-06-19T10:00:34;7.90;;;3.88;;
73239;SDS011;61452;40.054;4.110;2023-06-19T10:05:38;7.53;;;4.03;;
73239;SDS011;61452;40.054;4.110;2023-06-19T10:15:50;7.53;;;3.90;;
73239;SDS011;61452;40.054;4.110;2023-06-19T10:20:53;6.35;;;3.53;;
73239;SDS011;61452;40.054;4.110;2023-06-19T10:25:57;9.30;;;3.80;;
73239;SDS011;61452;40.054;4.110;2023-06-19T10:31:05;9.75;;;3.85;;
73239;SDS011;61452;40.054;4.110;2023-06-19T10:36:15;9.25;;;4.00;;
73239;SDS011;61452;40.054;4.110;2023-06-19T10:41:20;6.80;;;3.70;;
73239;SDS011;61452;40.054;4.110;2023-06-19T10:46:31;5.88;;;3.50;;
73239;SDS011;61452;40.054;4.110;2023-06-19T10:51:35;8.10;;;3.58;;
73239;SDS011;61452;40.054;4.110;2023-06-19T10:56:40;10.00;;;4.07;;
73239;SDS011;61452;40.054;4.110;2023-06-19T11:01:46;8.45;;;4.00;;
73239;SDS011;61452;40.054;4.110;2023-06-19T11:06:50;9.10;;;4.47;;
73239;SDS011;61452;40.054;4.110;2023-06-19T11:11:53;7.78;;;3.80;;
73239;SDS011;61452;40.054;4.110;2023-06-19T11:16:55;8.25;;;3.80;;
73239;SDS011;61452;40.054;4.110;2023-06-19T11:21:57;7.03;;;4.07;;
73239;SDS011;61452;40.054;4.110;2023-06-19T11:26:59;9.20;;;4.03;;
73239;SDS011;61452;40.054;4.110;2023-06-19T11:32:06;6.35;;;3.72;;
73239;SDS011;61452;40.054;4.110;2023-06-19T11:37:13;9.25;;;3.80;;
73239;SDS011;61452;40.054;4.110;2023-06-19T11:42:25;6.63;;;4.00;;
73239;SDS011;61452;40.054;4.110;2023-06-19T11:47:31;6.50;;;3.60;;
73239;SDS011;61452;40.054;4.110;2023-06-19T11:52:34;9.88;;;3.92;;
73239;SDS011;61452;40.054;4.110;2023-06-19T11:57:37;6.68;;;3.65;;
73239;SDS011;61452;40.054;4.110;2023-06-19T12:02:40;8.00;;;3.53;;
73239;SDS011;61452;40.054;4.110;2023-06-19T12:07:42;7.53;;;4.07;;
73239;SDS011;61452;40.054;4.110;2023-06-19T12:12:44;8.15;;;3.83;;
73239;SDS011;61452;40.054;4.110;2023-06-19T12:17:47;6.75;;;3.83;;
73239;SDS011;61452;40.054;4.110;2023-06-19T12:22:49;9.80;;;3.92;;
73239;SDS011;61452;40.054;4.110;2023-06-19T12:27:52;6.43;;;3.70;;
73239;SDS011;61452;40.054;4.110;2023-06-19T12:32:56;7.90;;;3.83;;
73239;SDS011;61452;40.054;4.110;2023-06-19T12:37:58;9.57;;;4.15;;
73239;SDS011;61452;40.054;4.110;2023-06-19T12:43:00;8.27;;;3.72;;
73239;SDS011;61452;40.054;4.110;2023-06-19T12:48:02;6.25;;;3.58;;
73239;SDS011;61452;40.054;4.110;2023-06-19T12:53:05;6.55;;;3.25;;
73239;SDS011;61452;40.054;4.110;2023-06-19T12:58:07;6.70;;;3.75;;
73239;SDS011;61452;40.054;4.110;2023-06-19T13:03:09;6.85;;;3.92;;
73239;SDS011;61452;40.054;4.110;2023-06-19T13:08:12;7.85;;;4.07;;
73239;SDS011;61452;40.054;4.110;2023-06-19T13:13:14;7.53;;;3.55;;
73239;SDS011;61452;40.054;4.110;2023-06-19T13:18:17;7.68;;;4.20;;
73239;SDS011;61452;40.054;4.110;2023-06-19T13:23:19;11.07;;;3.60;;
73239;SDS011;61452;40.054;4.110;2023-06-19T13:28:21;9.23;;;3.95;;
73239;SDS011;61452;40.054;4.110;2023-06-19T13:33:24;10.63;;;4.40;;
73239;SDS011;61452;40.054;4.110;2023-06-19T13:38:26;7.90;;;3.75;;
73239;SDS011;61452;40.054;4.110;2023-06-19T13:43:28;9.18;;;3.80;;
73239;SDS011;61452;40.054;4.110;2023-06-19T13:48:31;7.75;;;3.55;;
73239;SDS011;61452;40.054;4.110;2023-06-19T13:53:33;8.85;;;3.88;;
73239;SDS011;61452;40.054;4.110;2023-06-19T13:58:35;7.85;;;3.47;;
73239;SDS011;61452;40.054;4.110;2023-06-19T14:03:38;7.38;;;3.25;;
73239;SDS011;61452;40.054;4.110;2023-06-19T14:08:43;8.90;;;3.90;;
73239;SDS011;61452;40.054;4.110;2023-06-19T14:13:46;7.68;;;3.50;;
73239;SDS011;61452;40.054;4.110;2023-06-19T14:18:48;7.65;;;3.88;;
73239;SDS011;61452;40.054;4.110;2023-06-19T14:23:51;8.30;;;3.80;;
73239;SDS011;61452;40.054;4.110;2023-06-19T14:28:53;6.68;;;3.15;;
73239;SDS011;61452;40.054;4.110;2023-06-19T14:33:58;9.88;;;3.85;;
73239;SDS011;61452;40.054;4.110;2023-06-19T14:39:01;8.00;;;3.47;;
73239;SDS011;61452;40.054;4.110;2023-06-19T14:44:03;10.68;;;4.03;;
73239;SDS011;61452;40.054;4.110;2023-06-19T14:49:06;5.47;;;3.55;;
73239;SDS011;61452;40.054;4.110;2023-06-19T14:54:09;8.35;;;4.18;;
73239;SDS011;61452;40.054;4.110;2023-06-19T14:59:11;10.43;;;3.67;;
73239;SDS011;61452;40.054;4.110;2023-06-19T15:04:13;8.60;;;3.58;;
73239;SDS011;61452;40.054;4.110;2023-06-19T15:09:15;6.60;;;3.40;;
73239;SDS011;61452;40.054;4.110;2023-06-19T15:14:18;6.75;;;3.47;;
73239;SDS011;61452;40.054;4.110;2023-06-19T15:19:21;5.88;;;3.60;;
73239;SDS011;61452;40.054;4.110;2023-06-19T15:24:25;8.43;;;3.58;;
73239;SDS011;61452;40.054;4.110;2023-06-19T15:29:27;5.43;;;3.35;;
73239;SDS011;61452;40.054;4.110;2023-06-19T15:34:29;7.13;;;3.42;;
73239;SDS011;61452;40.054;4.110;2023-06-19T15:39:31;8.93;;;3.63;;
73239;SDS011;61452;40.054;4.110;2023-06-19T15:44:33;7.53;;;4.30;;
73239;SDS011;61452;40.054;4.110;2023-06-19T15:49:36;9.05;;;3.70;;
73239;SDS011;61452;40.054;4.110;2023-06-19T15:54:38;6.30;;;3.67;;
73239;SDS011;61452;40.054;4.110;2023-06-19T15:59:41;6.60;;;4.13;;
73239;SDS011;61452;40.054;4.110;2023-06-19T16:04:43;8.73;;;3.22;;
73239;SDS011;61452;40.054;4.110;2023-06-19T16:09:47;6.00;;;3.45;;
73239;SDS011;61452;40.054;4.110;2023-06-19T16:14:56;7.95;;;3.83;;
73239;SDS011;61452;40.054;4.110;2023-06-19T16:19:58;7.40;;;3.67;;
73239;SDS011;61452;40.054;4.110;2023-06-19T16:25:00;9.48;;;3.70;;
73239;SDS011;61452;40.054;4.110;2023-06-19T16:30:03;6.75;;;3.60;;
73239;SDS011;61452;40.054;4.110;2023-06-19T16:35:05;7.95;;;3.78;;
73239;SDS011;61452;40.054;4.110;2023-06-19T16:40:08;10.02;;;3.50;;
73239;SDS011;61452;40.054;4.110;2023-06-19T16:45:11;8.75;;;3.85;;
73239;SDS011;61452;40.054;4.110;2023-06-19T16:50:13;7.47;;;3.55;;
73239;SDS011;61452;40.054;4.110;2023-06-19T16:55:15;8.38;;;3.78;;
73239;SDS011;61452;40.054;4.110;2023-06-19T17:00:17;6.60;;;3.80;;
73239;SDS011;61452;40.054;4.110;2023-06-19T17:05:20;8.32;;;3.85;;
73239;SDS011;61452;40.054;4.110;2023-06-19T17:10:27;6.63;;;3.30;;
73239;SDS011;61452;40.054;4.110;2023-06-19T17:15:30;7.90;;;3.58;;
73239;SDS011;61452;40.054;4.110;2023-06-19T17:20:32;7.82;;;3.50;;
73239;SDS011;61452;40.054;4.110;2023-06-19T17:25:35;6.60;;;3.30;;
73239;SDS011;61452;40.054;4.110;2023-06-19T17:30:37;6.50;;;3.72;;
73239;SDS011;61452;40.054;4.110;2023-06-19T17:35:42;6.70;;;3.78;;
73239;SDS011;61452;40.054;4.110;2023-06-19T17:40:44;9.32;;;4.10;;
73239;SDS011;61452;40.054;4.110;2023-06-19T17:45:46;8.18;;;3.95;;
73239;SDS011;61452;40.054;4.110;2023-06-19T17:50:49;8.82;;;4.05;;
73239;SDS011;61452;40.054;4.110;2023-06-19T17:55:51;8.38;;;4.45;;
73239;SDS011;61452;40.054;4.110;2023-06-19T18:00:53;6.88;;;3.58;;
73239;SDS011;61452;40.054;4.110;2023-06-19T18:05:55;8.68;;;4.00;;
73239;SDS011;61452;40.054;4.110;2023-06-19T18:10:57;7.93;;;4.30;;
73239;SDS011;61452;40.054;4.110;2023-06-19T18:16:00;8.95;;;4.28;;
73239;SDS011;61452;40.054;4.110;2023-06-19T18:21:13;7.30;;;4.30;;
73239;SDS011;61452;40.054;4.110;2023-06-19T18:26:15;9.60;;;4.70;;
73239;SDS011;61452;40.054;4.110;2023-06-19T18:31:17;7.72;;;4.82;;
73239;SDS011;61452;40.054;4.110;2023-06-19T18:36:19;7.22;;;4.07;;
73239;SDS011;61452;40.054;4.110;2023-06-19T18:41:22;9.57;;;4.90;;
73239;SDS011;61452;40.054;4.110;2023-06-19T18:46:24;7.82;;;4.53;;
73239;SDS011;61452;40.054;4.110;2023-06-19T18:51:27;8.10;;;4.40;;
73239;SDS011;61452;40.054;4.110;2023-06-19T18:56:29;7.32;;;4.00;;
73239;SDS011;61452;40.054;4.110;2023-06-19T19:01:31;9.25;;;4.40;;
73239;SDS011;61452;40.054;4.110;2023-06-19T19:06:33;7.82;;;4.43;;
73239;SDS011;61452;40.054;4.110;2023-06-19T19:11:35;8.35;;;4.28;;
73239;SDS011;61452;40.054;4.110;2023-06-19T19:16:37;8.68;;;4.60;;
73239;SDS011;61452;40.054;4.110;2023-06-19T19:21:40;10.93;;;5.18;;
73239;SDS011;61452;40.054;4.110;2023-06-19T19:26:42;8.65;;;4.60;;
73239;SDS011;61452;40.054;4.110;2023-06-19T19:31:44;7.45;;;4.05;;
73239;SDS011;61452;40.054;4.110;2023-06-19T19:36:46;9.98;;;4.32;;
73239;SDS011;61452;40.054;4.110;2023-06-19T19:41:49;8.15;;;4.80;;
73239;SDS011;61452;40.054;4.110;2023-06-19T19:46:51;7.18;;;4.50;;
73239;SDS011;61452;40.054;4.110;2023-06-19T19:51:53;7.43;;;4.20;;
73239;SDS011;61452;40.054;4.110;2023-06-19T19:56:55;8.00;;;4.10;;
73239;SDS011;61452;40.054;4.110;2023-06-19T20:01:58;7.80;;;4.57;;
73239;SDS011;61452;40.054;4.110;2023-06-19T20:07:01;8.48;;;4.57;;
73239;SDS011;61452;40.054;4.110;2023-06-19T20:12:03;6.90;;;4.05;;
73239;SDS011;61452;40.054;4.110;2023-06-19T20:17:22;9.95;;;4.50;;
73239;SDS011;61452;40.054;4.110;2023-06-19T20:22:25;9.63;;;4.55;;
73239;SDS011;61452;40.054;4.110;2023-06-19T20:27:27;7.57;;;4.10;;
73239;SDS011;61452;40.054;4.110;2023-06-19T20:32:29;7.20;;;4.45;;
73239;SDS011;61452;40.054;4.110;2023-06-19T20:37:31;6.75;;;4.05;;
73239;SDS011;61452;40.054;4.110;2023-06-19T20:42:35;7.07;;;3.42;;
73239;SDS011;61452;40.054;4.110;2023-06-19T20:47:37;5.50;;;4.10;;
73239;SDS011;61452;40.054;4.110;2023-06-19T20:52:39;7.35;;;4.00;;
73239;SDS011;61452;40.054;4.110;2023-06-19T20:57:41;7.57;;;4.05;;
73239;SDS011;61452;40.054;4.110;2023-06-19T21:02:44;7.28;;;4.18;;
73239;SDS011;61452;40.054;4.110;2023-06-19T21:07:46;7.30;;;3.92;;
73239;SDS011;61452;40.054;4.110;2023-06-19T21:12:49;5.07;;;3.92;;
73239;SDS011;61452;40.054;4.110;2023-06-19T21:17:51;6.03;;;3.97;;
73239;SDS011;61452;40.054;4.110;2023-06-19T21:22:53;6.13;;;3.88;;
73239;SDS011;61452;40.054;4.110;2023-06-19T21:27:56;7.45;;;4.30;;
73239;SDS011;61452;40.054;4.110;2023-06-19T21:33:00;8.00;;;3.88;;
73239;SDS011;61452;40.054;4.110;2023-06-19T21:38:02;9.77;;;4.40;;
73239;SDS011;61452;40.054;4.110;2023-06-19T21:43:04;7.00;;;3.80;;
73239;SDS011;61452;40.054;4.110;2023-06-19T21:48:06;7.40;;;4.25;;
73239;SDS011;61452;40.054;4.110;2023-06-19T21:53:08;7.60;;;4.15;;
73239;SDS011;61452;40.054;4.110;2023-06-19T21:58:11;5.82;;;3.95;;
73239;SDS011;61452;40.054;4.110;2023-06-19T22:03:13;7.53;;;4.13;;
73239;SDS011;61452;40.054;4.110;2023-06-19T22:08:15;7.32;;;4.13;;
73239;SDS011;61452;40.054;4.110;2023-06-19T22:13:27;6.88;;;3.72;;
73239;SDS011;61452;40.054;4.110;2023-06-19T22:18:32;5.22;;;3.67;;
73239;SDS011;61452;40.054;4.110;2023-06-19T22:23:34;7.70;;;4.07;;
73239;SDS011;61452;40.054;4.110;2023-06-19T22:28:38;7.75;;;4.20;;
73239;SDS011;61452;40.054;4.110;2023-06-19T22:33:41;7.15;;;3.75;;
73239;SDS011;61452;40.054;4.110;2023-06-19T22:38:43;6.57;;;4.13;;
73239;SDS011;61452;40.054;4.110;2023-06-19T22:43:45;6.68;;;4.30;;
73239;SDS011;61452;40.054;4.110;2023-06-19T22:48:47;6.97;;;3.88;;
73239;SDS011;61452;40.054;4.110;2023-06-19T22:53:52;6.43;;;4.03;;
73239;SDS011;61452;40.054;4.110;2023-06-19T22:58:54;6.55;;;3.83;;
73239;SDS011;61452;40.054;4.110;2023-06-19T23:03:56;9.25;;;4.43;;
73239;SDS011;61452;40.054;4.110;2023-06-19T23:08:59;9.18;;;4.78;;
73239;SDS011;61452;40.054;4.110;2023-06-19T23:14:01;8.20;;;4.45;;
73239;SDS011;61452;40.054;4.110;2023-06-19T23:19:03;9.20;;;5.03;;
73239;SDS011;61452;40.054;4.110;2023-06-19T23:24:05;9.65;;;4.70;;
73239;SDS011;61452;40.054;4.110;2023-06-19T23:29:08;10.02;;;5.40;;
73239;SDS011;61452;40.054;4.110;2023-06-19T23:34:10;9.13;;;4.85;;
73239;SDS011;61452;40.054;4.110;2023-06-19T23:39:12;12.45;;;4.72;;
73239;SDS011;61452;40.054;4.110;2023-06-19T23:44:14;8.13;;;4.88;;
73239;SDS011;61452;40.054;4.110;2023-06-19T23:49:16;9.77;;;5.13;;
73239;SDS011;61452;40.054;4.110;2023-06-19T23:54:21;8.50;;;5.20;;
73239;SDS011;61452;40.054;4.110;2023-06-19T23:59:23;9.45;;;4.82;;
